sensor_id;sensor_type;location;lat;lon;timestamp;pressure;altitude;pressure_sealevel;temperature;humidity
29839;BME280;18669;53.356;-1.464;2023-03-21T00:01:54;99889.59;;;11.12;100.00
29839;BME280;18669;53.356;-1.464;2023-03-21T00:04:39;99877.63;;;11.03;100.00
29839;BME280;18669;53.356;-1.464;2023-03-21T00:07:24;99884.38;;;11.11;100.00
29839;BME280;18669;53.356;-1.464;2023-03-21T00:10:09;99876.03;;;10.98;100.00
29839;BME280;18669;53.356;-1.464;2023-03-21T00:12:54;99863.84;;;10.95;100.00
29839;BME280;18669;53.356;-1.464;2023-03-21T00:15:42;99870.78;;;10.98;100.00
29839;BME280;18669;53.356;-1.464;2023-03-21T00:18:38;99877.19;;;10.91;100.00
29839;BME280;18669;53.356;-1.464;2023-03-21T00:21:25;99868.41;;;10.90;100.00
29839;BME280;18669;53.356;-1.464;2023-03-21T00:24:15;99870.09;;;10.93;100.00
29839;BME280;18669;53.356;-1.464;2023-03-21T00:27:00;99860.59;;;10.88;100.00
29839;BME280;18669;53.356;-1.464;2023-03-21T00:29:46;99863.84;;;10.95;100.00
29839;BME280;18669;53.356;-1.464;2023-03-21T00:32:33;99869.19;;;10.94;100.00
29839;BME280;18669;53.356;-1.464;2023-03-21T00:35:17;99868.38;;;10.92;100.00
29839;BME280;18669;53.356;-1.464;2023-03-21T00:38:02;99861.63;;;10.83;100.00
29839;BME280;18669;53.356;-1.464;2023-03-21T00:40:47;99854.75;;;10.79;100.00
29839;BME280;18669;53.356;-1.464;2023-03-21T00:43:32;99864.91;;;10.64;100.00
29839;BME280;18669;53.356;-1.464;2023-03-21T00:46:17;99851.78;;;10.63;100.00
29839;BME280;18669;53.356;-1.464;2023-03-21T00:49:02;99845.84;;;10.57;100.00
29839;BME280;18669;53.356;-1.464;2023-03-21T00:51:47;99847.41;;;10.63;100.00
29839;BME280;18669;53.356;-1.464;2023-03-21T00:54:35;99839.41;;;10.66;100.00
29839;BME280;18669;53.356;-1.464;2023-03-21T00:57:20;99833.34;;;10.64;100.00
29839;BME280;18669;53.356;-1.464;2023-03-21T01:00:07;99840.84;;;10.75;100.00
29839;BME280;18669;53.356;-1.464;2023-03-21T01:02:54;99838.84;;;10.56;100.00
29839;BME280;18669;53.356;-1.464;2023-03-21T01:05:44;99836.00;;;10.63;100.00
29839;BME280;18669;53.356;-1.464;2023-03-21T01:08:51;99837.53;;;10.43;100.00
29839;BME280;18669;53.356;-1.464;2023-03-21T01:11:35;99820.09;;;10.40;100.00
29839;BME280;18669;53.356;-1.464;2023-03-21T01:14:22;99813.88;;;10.43;100.00
29839;BME280;18669;53.356;-1.464;2023-03-21T01:17:07;99801.97;;;10.31;100.00
29839;BME280;18669;53.356;-1.464;2023-03-21T01:19:52;99800.16;;;10.32;100.00
29839;BME280;18669;53.356;-1.464;2023-03-21T01:22:37;99808.13;;;10.30;100.00
29839;BME280;18669;53.356;-1.464;2023-03-21T01:25:22;99804.69;;;10.28;100.00
29839;BME280;18669;53.356;-1.464;2023-03-21T01:28:07;99795.88;;;10.29;100.00
29839;BME280;18669;53.356;-1.464;2023-03-21T01:30:52;99793.28;;;10.27;100.00
29839;BME280;18669;53.356;-1.464;2023-03-21T01:33:37;99791.47;;;10.29;100.00
29839;BME280;18669;53.356;-1.464;2023-03-21T01:36:24;99792.09;;;10.39;100.00
29839;BME280;18669;53.356;-1.464;2023-03-21T01:39:09;99780.47;;;10.18;100.00
29839;BME280;18669;53.356;-1.464;2023-03-21T01:41:54;99781.19;;;10.23;100.00
29839;BME280;18669;53.356;-1.464;2023-03-21T01:45:02;99776.56;;;10.30;100.00
29839;BME280;18669;53.356;-1.464;2023-03-21T01:47:47;99768.63;;;10.32;100.00
29839;BME280;18669;53.356;-1.464;2023-03-21T01:50:32;99760.34;;;10.17;100.00
29839;BME280;18669;53.356;-1.464;2023-03-21T01:53:19;99733.81;;;10.25;100.00
29839;BME280;18669;53.356;-1.464;2023-03-21T01:56:10;99750.38;;;10.27;100.00
29839;BME280;18669;53.356;-1.464;2023-03-21T01:59:02;99735.56;;;10.24;100.00
29839;BME280;18669;53.356;-1.464;2023-03-21T02:01:50;99737.44;;;10.21;100.00
29839;BME280;18669;53.356;-1.464;2023-03-21T02:04:36;99741.75;;;10.23;100.00
29839;BME280;18669;53.356;-1.464;2023-03-21T02:07:27;99730.19;;;10.27;100.00
29839;BME280;18669;53.356;-1.464;2023-03-21T02:10:13;99730.31;;;10.24;100.00
29839;BME280;18669;53.356;-1.464;2023-03-21T02:13:03;99730.91;;;10.33;100.00
29839;BME280;18669;53.356;-1.464;2023-03-21T02:16:13;99729.72;;;10.43;100.00
29839;BME280;18669;53.356;-1.464;2023-03-21T02:19:17;99721.28;;;10.32;100.00
29839;BME280;18669;53.356;-1.464;2023-03-21T02:22:23;99729.81;;;10.40;100.00
29839;BME280;18669;53.356;-1.464;2023-03-21T02:28:29;99718.41;;;10.41;100.00
29839;BME280;18669;53.356;-1.464;2023-03-21T02:37:28;99715.25;;;10.56;100.00
29839;BME280;18669;53.356;-1.464;2023-03-21T02:43:23;99717.91;;;10.55;100.00
29839;BME280;18669;53.356;-1.464;2023-03-21T02:46:30;99718.78;;;10.55;100.00
29839;BME280;18669;53.356;-1.464;2023-03-21T02:49:31;99707.25;;;10.59;100.00
29839;BME280;18669;53.356;-1.464;2023-03-21T02:52:21;99708.81;;;10.64;100.00
29839;BME280;18669;53.356;-1.464;2023-03-21T02:55:13;99712.16;;;10.69;100.00
29839;BME280;18669;53.356;-1.464;2023-03-21T02:57:59;99703.56;;;10.64;100.00
29839;BME280;18669;53.356;-1.464;2023-03-21T03:00:45;99699.34;;;10.59;100.00
29839;BME280;18669;53.356;-1.464;2023-03-21T03:03:31;99700.38;;;10.55;100.00
29839;BME280;18669;53.356;-1.464;2023-03-21T03:06:24;99696.66;;;10.61;100.00
29839;BME280;18669;53.356;-1.464;2023-03-21T03:09:17;99693.97;;;10.63;100.00
29839;BME280;18669;53.356;-1.464;2023-03-21T03:12:23;99686.88;;;10.65;100.00
29839;BME280;18669;53.356;-1.464;2023-03-21T03:18:38;99674.25;;;10.74;100.00
29839;BME280;18669;53.356;-1.464;2023-03-21T03:21:41;99672.59;;;10.72;100.00
29839;BME280;18669;53.356;-1.464;2023-03-21T03:24:31;99666.41;;;10.73;100.00
29839;BME280;18669;53.356;-1.464;2023-03-21T03:27:24;99659.28;;;10.77;100.00
29839;BME280;18669;53.356;-1.464;2023-03-21T03:30:11;99655.84;;;10.74;100.00
29839;BME280;18669;53.356;-1.464;2023-03-21T03:33:00;99654.03;;;10.77;100.00
29839;BME280;18669;53.356;-1.464;2023-03-21T03:35:46;99662.06;;;10.72;100.00
29839;BME280;18669;53.356;-1.464;2023-03-21T03:38:33;99654.13;;;10.73;100.00
29839;BME280;18669;53.356;-1.464;2023-03-21T03:41:25;99659.22;;;10.78;100.00
29839;BME280;18669;53.356;-1.464;2023-03-21T03:44:10;99652.91;;;10.58;100.00
29839;BME280;18669;53.356;-1.464;2023-03-21T03:47:00;99658.53;;;10.73;100.00
29839;BME280;18669;53.356;-1.464;2023-03-21T03:49:54;99658.53;;;10.73;100.00
29839;BME280;18669;53.356;-1.464;2023-03-21T03:52:46;99654.13;;;10.73;100.00
29839;BME280;18669;53.356;-1.464;2023-03-21T03:55:33;99650.13;;;10.63;100.00
29839;BME280;18669;53.356;-1.464;2023-03-21T03:58:19;99651.66;;;10.69;100.00
29839;BME280;18669;53.356;-1.464;2023-03-21T04:01:05;99647.47;;;10.63;100.00
29839;BME280;18669;53.356;-1.464;2023-03-21T04:03:53;99647.59;;;10.60;100.00
29839;BME280;18669;53.356;-1.464;2023-03-21T04:06:37;99646.84;;;10.56;100.00
29839;BME280;18669;53.356;-1.464;2023-03-21T04:09:23;99638.72;;;10.63;100.00
29839;BME280;18669;53.356;-1.464;2023-03-21T04:12:08;99636.22;;;10.59;100.00
29839;BME280;18669;53.356;-1.464;2023-03-21T04:14:53;99639.53;;;10.65;100.00
29839;BME280;18669;53.356;-1.464;2023-03-21T04:17:38;99635.25;;;10.62;100.00
29839;BME280;18669;53.356;-1.464;2023-03-21T04:20:23;99630.72;;;10.66;100.00
29839;BME280;18669;53.356;-1.464;2023-03-21T04:23:08;99630.78;;;10.64;100.00
29839;BME280;18669;53.356;-1.464;2023-03-21T04:25:53;99622.03;;;10.64;100.00
29839;BME280;18669;53.356;-1.464;2023-03-21T04:28:38;99629.91;;;10.64;100.00
29839;BME280;18669;53.356;-1.464;2023-03-21T04:31:23;99623.69;;;10.66;100.00
29839;BME280;18669;53.356;-1.464;2023-03-21T04:34:10;99614.25;;;10.60;100.00
29839;BME280;18669;53.356;-1.464;2023-03-21T04:36:56;99612.47;;;10.61;100.00
29839;BME280;18669;53.356;-1.464;2023-03-21T04:39:40;99612.25;;;10.67;100.00
29839;BME280;18669;53.356;-1.464;2023-03-21T04:42:26;99599.16;;;10.66;100.00
29839;BME280;18669;53.356;-1.464;2023-03-21T04:45:11;99599.91;;;10.69;100.00
29839;BME280;18669;53.356;-1.464;2023-03-21T04:47:56;99587.78;;;10.65;100.00
29839;BME280;18669;53.356;-1.464;2023-03-21T04:50:41;99576.28;;;10.68;100.00
29839;BME280;18669;53.356;-1.464;2023-03-21T04:53:26;99593.06;;;10.65;100.00
29839;BME280;18669;53.356;-1.464;2023-03-21T04:56:11;99586.00;;;10.66;100.00
29839;BME280;18669;53.356;-1.464;2023-03-21T04:58:57;99584.97;;;10.70;100.00
29839;BME280;18669;53.356;-1.464;2023-03-21T05:01:43;99585.97;;;10.67;100.00
29839;BME280;18669;53.356;-1.464;2023-03-21T05:04:28;99581.66;;;10.65;100.00
29839;BME280;18669;53.356;-1.464;2023-03-21T05:07:14;99574.53;;;10.68;100.00
29839;BME280;18669;53.356;-1.464;2023-03-21T05:09:59;99565.03;;;10.64;100.00
29839;BME280;18669;53.356;-1.464;2023-03-21T05:12:44;99559.88;;;10.61;100.00
29839;BME280;18669;53.356;-1.464;2023-03-21T05:15:29;99557.47;;;10.55;100.00
29839;BME280;18669;53.356;-1.464;2023-03-21T05:18:14;99569.69;;;10.57;100.00
29839;BME280;18669;53.356;-1.464;2023-03-21T05:20:59;99553.13;;;10.54;100.00
29839;BME280;18669;53.356;-1.464;2023-03-21T05:23:44;99547.34;;;10.68;100.00
29839;BME280;18669;53.356;-1.464;2023-03-21T05:26:29;99548.38;;;10.64;100.00
29839;BME280;18669;53.356;-1.464;2023-03-21T05:29:14;99551.06;;;10.62;100.00
29839;BME280;18669;53.356;-1.464;2023-03-21T05:31:59;99549.00;;;10.70;100.00
29839;BME280;18669;53.356;-1.464;2023-03-21T05:34:44;99538.72;;;10.64;100.00
29839;BME280;18669;53.356;-1.464;2023-03-21T05:37:29;99542.16;;;10.66;100.00
29839;BME280;18669;53.356;-1.464;2023-03-21T05:40:14;99546.72;;;10.61;100.00
29839;BME280;18669;53.356;-1.464;2023-03-21T05:42:59;99545.69;;;10.65;100.00
29839;BME280;18669;53.356;-1.464;2023-03-21T05:45:44;99545.81;;;10.62;100.00
29839;BME280;18669;53.356;-1.464;2023-03-21T05:48:28;99540.56;;;10.62;100.00
29839;BME280;18669;53.356;-1.464;2023-03-21T05:51:13;99533.47;;;10.64;100.00
29839;BME280;18669;53.356;-1.464;2023-03-21T05:53:58;99534.31;;;10.65;100.00
29839;BME280;18669;53.356;-1.464;2023-03-21T05:56:43;99532.25;;;10.73;100.00
29839;BME280;18669;53.356;-1.464;2023-03-21T05:59:29;99529.50;;;10.76;100.00
29839;BME280;18669;53.356;-1.464;2023-03-21T06:02:13;99533.28;;;10.69;100.00
29839;BME280;18669;53.356;-1.464;2023-03-21T06:04:59;99527.97;;;10.70;100.00
29839;BME280;18669;53.356;-1.464;2023-03-21T06:07:44;99529.72;;;10.70;100.00
29839;BME280;18669;53.356;-1.464;2023-03-21T06:10:29;99525.47;;;10.67;100.00
29839;BME280;18669;53.356;-1.464;2023-03-21T06:13:14;99525.25;;;10.72;100.00
29839;BME280;18669;53.356;-1.464;2023-03-21T06:15:59;99527.09;;;10.70;100.00
29839;BME280;18669;53.356;-1.464;2023-03-21T06:18:45;99514.19;;;10.64;100.00
29839;BME280;18669;53.356;-1.464;2023-03-21T06:21:29;99511.66;;;10.60;100.00
29839;BME280;18669;53.356;-1.464;2023-03-21T06:24:15;99518.66;;;10.62;100.00
29839;BME280;18669;53.356;-1.464;2023-03-21T06:27:01;99508.31;;;10.57;100.00
29839;BME280;18669;53.356;-1.464;2023-03-21T06:29:46;99514.50;;;10.56;100.00
29839;BME280;18669;53.356;-1.464;2023-03-21T06:32:31;99516.31;;;10.54;100.00
29839;BME280;18669;53.356;-1.464;2023-03-21T06:35:16;99515.38;;;10.56;100.00
29839;BME280;18669;53.356;-1.464;2023-03-21T06:38:00;99515.53;;;10.52;100.00
29839;BME280;18669;53.356;-1.464;2023-03-21T06:40:46;99503.66;;;10.64;100.00
29839;BME280;18669;53.356;-1.464;2023-03-21T06:43:32;99507.22;;;10.63;100.00
29839;BME280;18669;53.356;-1.464;2023-03-21T06:46:18;99505.50;;;10.62;100.00
29839;BME280;18669;53.356;-1.464;2023-03-21T06:49:05;99507.84;;;10.69;100.00
29839;BME280;18669;53.356;-1.464;2023-03-21T06:51:50;99501.03;;;10.64;100.00
29839;BME280;18669;53.356;-1.464;2023-03-21T06:54:35;99506.72;;;10.75;100.00
29839;BME280;18669;53.356;-1.464;2023-03-21T06:57:19;99517.94;;;10.80;100.00
29839;BME280;18669;53.356;-1.464;2023-03-21T07:00:06;99523.53;;;10.95;100.00
29839;BME280;18669;53.356;-1.464;2023-03-21T07:02:52;99528.69;;;10.74;100.00
29839;BME280;18669;53.356;-1.464;2023-03-21T07:05:37;99525.84;;;10.80;100.00
29839;BME280;18669;53.356;-1.464;2023-03-21T07:08:22;99519.84;;;10.77;100.00
29839;BME280;18669;53.356;-1.464;2023-03-21T07:11:08;99524.84;;;10.83;100.00
29839;BME280;18669;53.356;-1.464;2023-03-21T07:13:52;99522.88;;;10.88;100.00
29839;BME280;18669;53.356;-1.464;2023-03-21T07:16:37;99514.16;;;10.87;100.00
29839;BME280;18669;53.356;-1.464;2023-03-21T07:19:22;99512.19;;;10.93;100.00
29839;BME280;18669;53.356;-1.464;2023-03-21T07:22:07;99498.84;;;10.97;100.00
29839;BME280;18669;53.356;-1.464;2023-03-21T07:24:52;99496.25;;;10.96;100.00
29839;BME280;18669;53.356;-1.464;2023-03-21T07:27:37;99496.44;;;10.91;100.00
29839;BME280;18669;53.356;-1.464;2023-03-21T07:30:22;99494.94;;;10.85;100.00
29839;BME280;18669;53.356;-1.464;2023-03-21T07:33:07;99497.22;;;10.95;100.00
29839;BME280;18669;53.356;-1.464;2023-03-21T07:35:52;99501.78;;;10.89;100.00
29839;BME280;18669;53.356;-1.464;2023-03-21T07:38:38;99504.59;;;10.85;100.00
29839;BME280;18669;53.356;-1.464;2023-03-21T07:41:23;99500.38;;;10.81;100.00
29839;BME280;18669;53.356;-1.464;2023-03-21T07:44:07;99489.78;;;10.82;100.00
29839;BME280;18669;53.356;-1.464;2023-03-21T07:46:53;99503.22;;;10.97;100.00
29839;BME280;18669;53.356;-1.464;2023-03-21T07:49:38;99492.22;;;11.09;100.00
29839;BME280;18669;53.356;-1.464;2023-03-21T07:52:26;99494.69;;;11.34;100.00
29839;BME280;18669;53.356;-1.464;2023-03-21T07:55:11;99505.56;;;11.47;100.00
29839;BME280;18669;53.356;-1.464;2023-03-21T07:58:02;99510.91;;;11.67;100.00
29839;BME280;18669;53.356;-1.464;2023-03-21T08:00:48;99498.97;;;11.78;100.00
29839;BME280;18669;53.356;-1.464;2023-03-21T08:03:33;99510.69;;;11.71;100.00
29839;BME280;18669;53.356;-1.464;2023-03-21T08:06:19;99492.13;;;11.74;100.00
29839;BME280;18669;53.356;-1.464;2023-03-21T08:09:04;99495.06;;;12.08;100.00
29839;BME280;18669;53.356;-1.464;2023-03-21T08:11:49;99487.06;;;12.09;100.00
29839;BME280;18669;53.356;-1.464;2023-03-21T08:14:34;99493.28;;;12.28;100.00
29839;BME280;18669;53.356;-1.464;2023-03-21T08:17:20;99483.81;;;12.23;100.00
29839;BME280;18669;53.356;-1.464;2023-03-21T08:20:06;99483.19;;;12.18;100.00
29839;BME280;18669;53.356;-1.464;2023-03-21T08:22:52;99486.97;;;11.92;100.00
29839;BME280;18669;53.356;-1.464;2023-03-21T08:25:37;99470.81;;;12.00;100.00
29839;BME280;18669;53.356;-1.464;2023-03-21T08:28:22;99479.53;;;12.02;100.00
29839;BME280;18669;53.356;-1.464;2023-03-21T08:31:09;99475.56;;;12.12;100.00
29839;BME280;18669;53.356;-1.464;2023-03-21T08:33:53;99467.78;;;12.09;100.00
29839;BME280;18669;53.356;-1.464;2023-03-21T08:36:39;99475.56;;;12.12;100.00
29839;BME280;18669;53.356;-1.464;2023-03-21T08:39:24;99468.84;;;12.05;100.00
29839;BME280;18669;53.356;-1.464;2023-03-21T08:42:09;99458.09;;;11.89;100.00
29839;BME280;18669;53.356;-1.464;2023-03-21T08:44:54;99447.97;;;11.79;100.00
29839;BME280;18669;53.356;-1.464;2023-03-21T08:47:39;99449.94;;;11.95;100.00
29839;BME280;18669;53.356;-1.464;2023-03-21T08:50:25;99451.00;;;11.91;100.00
29839;BME280;18669;53.356;-1.464;2023-03-21T08:53:12;99457.19;;;11.69;100.00
29839;BME280;18669;53.356;-1.464;2023-03-21T08:55:57;99441.78;;;11.81;100.00
29839;BME280;18669;53.356;-1.464;2023-03-21T08:58:42;99441.00;;;11.99;100.00
29839;BME280;18669;53.356;-1.464;2023-03-21T09:01:28;99450.31;;;12.06;100.00
29839;BME280;18669;53.356;-1.464;2023-03-21T09:04:13;99443.19;;;12.08;100.00
29839;BME280;18669;53.356;-1.464;2023-03-21T09:06:58;99440.28;;;12.15;100.00
29839;BME280;18669;53.356;-1.464;2023-03-21T09:09:45;99436.34;;;12.04;100.00
29839;BME280;18669;53.356;-1.464;2023-03-21T09:12:31;99438.13;;;12.04;100.00
29839;BME280;18669;53.356;-1.464;2023-03-21T09:15:16;99444.19;;;12.06;100.00
29839;BME280;18669;53.356;-1.464;2023-03-21T09:18:01;99448.28;;;11.92;100.00
29839;BME280;18669;53.356;-1.464;2023-03-21T09:20:57;99435.41;;;12.05;100.00
29839;BME280;18669;53.356;-1.464;2023-03-21T09:23:44;99437.00;;;12.09;100.00
29839;BME280;18669;53.356;-1.464;2023-03-21T09:26:29;99431.22;;;12.20;100.00
29839;BME280;18669;53.356;-1.464;2023-03-21T09:29:14;99414.69;;;12.36;100.00
29839;BME280;18669;53.356;-1.464;2023-03-21T09:31:59;99428.50;;;12.41;100.00
29839;BME280;18669;53.356;-1.464;2023-03-21T09:34:45;99415.81;;;12.49;100.00
29839;BME280;18669;53.356;-1.464;2023-03-21T09:37:32;99414.41;;;12.60;100.00
29839;BME280;18669;53.356;-1.464;2023-03-21T09:50:11;99393.28;;;12.96;100.00
29839;BME280;18669;53.356;-1.464;2023-03-21T09:56:01;99395.53;;;12.87;100.00
29839;BME280;18669;53.356;-1.464;2023-03-21T09:58:48;99400.03;;;13.02;100.00
29839;BME280;18669;53.356;-1.464;2023-03-21T10:01:38;99401.41;;;12.92;100.00
29839;BME280;18669;53.356;-1.464;2023-03-21T10:04:28;99403.81;;;12.79;100.00
29839;BME280;18669;53.356;-1.464;2023-03-21T10:07:15;99400.28;;;12.97;100.00
29839;BME280;18669;53.356;-1.464;2023-03-21T10:10:02;99386.41;;;13.10;100.00
29839;BME280;18669;53.356;-1.464;2023-03-21T10:12:49;99382.72;;;12.96;100.00
29839;BME280;18669;53.356;-1.464;2023-03-21T10:15:36;99392.88;;;13.04;100.00
29839;BME280;18669;53.356;-1.464;2023-03-21T10:18:23;99387.69;;;13.03;100.00
29839;BME280;18669;53.356;-1.464;2023-03-21T10:21:20;99381.38;;;13.23;100.00
29839;BME280;18669;53.356;-1.464;2023-03-21T10:24:15;99376.47;;;13.15;100.00
29839;BME280;18669;53.356;-1.464;2023-03-21T10:27:02;99377.97;;;13.03;100.00
29839;BME280;18669;53.356;-1.464;2023-03-21T10:29:48;99373.94;;;13.13;100.00
29839;BME280;18669;53.356;-1.464;2023-03-21T10:32:36;99376.56;;;13.13;100.00
29839;BME280;18669;53.356;-1.464;2023-03-21T10:35:21;99381.44;;;13.72;100.00
29839;BME280;18669;53.356;-1.464;2023-03-21T10:38:14;99349.22;;;14.30;100.00
29839;BME280;18669;53.356;-1.464;2023-03-21T10:41:00;99356.31;;;14.45;100.00
29839;BME280;18669;53.356;-1.464;2023-03-21T10:43:45;99352.19;;;14.40;100.00
29839;BME280;18669;53.356;-1.464;2023-03-21T10:46:34;99349.75;;;14.21;100.00
29839;BME280;18669;53.356;-1.464;2023-03-21T10:49:19;99360.84;;;14.27;100.00
29839;BME280;18669;53.356;-1.464;2023-03-21T10:52:10;99347.63;;;14.74;100.00
29839;BME280;18669;53.356;-1.464;2023-03-21T10:55:32;99338.09;;;15.45;100.00
29839;BME280;18669;53.356;-1.464;2023-03-21T10:58:20;99328.41;;;16.02;100.00
29839;BME280;18669;53.356;-1.464;2023-03-21T11:01:13;99335.31;;;15.90;100.00
29839;BME280;18669;53.356;-1.464;2023-03-21T11:04:08;99338.66;;;15.65;100.00
29839;BME280;18669;53.356;-1.464;2023-03-21T11:07:04;99336.53;;;15.85;100.00
29839;BME280;18669;53.356;-1.464;2023-03-21T11:09:57;99328.97;;;15.93;100.00
29839;BME280;18669;53.356;-1.464;2023-03-21T11:12:46;99329.44;;;16.00;100.00
29839;BME280;18669;53.356;-1.464;2023-03-21T11:18:39;99316.75;;;16.73;93.61
29839;BME280;18669;53.356;-1.464;2023-03-21T11:21:24;99322.47;;;16.66;91.47
29839;BME280;18669;53.356;-1.464;2023-03-21T11:24:12;99330.94;;;16.59;96.07
29839;BME280;18669;53.356;-1.464;2023-03-21T11:26:58;99322.19;;;16.16;98.35
29839;BME280;18669;53.356;-1.464;2023-03-21T11:29:46;99358.44;;;15.59;100.00
29839;BME280;18669;53.356;-1.464;2023-03-21T11:32:34;99351.16;;;15.34;100.00
29839;BME280;18669;53.356;-1.464;2023-03-21T11:35:21;99361.56;;;15.66;100.00
29839;BME280;18669;53.356;-1.464;2023-03-21T11:38:24;99353.34;;;16.27;93.60
29839;BME280;18669;53.356;-1.464;2023-03-21T11:41:21;99351.97;;;16.07;88.30
29839;BME280;18669;53.356;-1.464;2023-03-21T11:44:28;99348.38;;;16.08;91.21
29839;BME280;18669;53.356;-1.464;2023-03-21T11:47:13;99340.09;;;16.13;94.67
29839;BME280;18669;53.356;-1.464;2023-03-21T11:49:59;99354.53;;;16.36;88.05
29839;BME280;18669;53.356;-1.464;2023-03-21T11:53:04;99347.13;;;16.41;89.29
29839;BME280;18669;53.356;-1.464;2023-03-21T12:05:18;99319.34;;;17.52;82.36
29839;BME280;18669;53.356;-1.464;2023-03-21T12:11:22;99303.06;;;19.71;62.91
29839;BME280;18669;53.356;-1.464;2023-03-21T12:14:22;99320.09;;;20.13;58.03
29839;BME280;18669;53.356;-1.464;2023-03-21T12:17:26;99304.34;;;20.10;53.84
29839;BME280;18669;53.356;-1.464;2023-03-21T12:23:36;99295.44;;;20.54;50.82
29839;BME280;18669;53.356;-1.464;2023-03-21T12:27:03;99289.59;;;19.95;52.39
29839;BME280;18669;53.356;-1.464;2023-03-21T12:39:23;99271.38;;;20.86;50.72
29839;BME280;18669;53.356;-1.464;2023-03-21T12:45:38;99280.19;;;20.12;49.89
29839;BME280;18669;53.356;-1.464;2023-03-21T12:48:59;99285.50;;;19.57;51.89
29839;BME280;18669;53.356;-1.464;2023-03-21T12:51:45;99270.22;;;20.14;51.34
29839;BME280;18669;53.356;-1.464;2023-03-21T12:57:20;99280.47;;;20.84;48.11
29839;BME280;18669;53.356;-1.464;2023-03-21T13:00:22;99278.94;;;20.27;48.25
29839;BME280;18669;53.356;-1.464;2023-03-21T13:06:21;99283.00;;;21.69;46.69
29839;BME280;18669;53.356;-1.464;2023-03-21T13:09:40;99299.16;;;22.08;45.06
29839;BME280;18669;53.356;-1.464;2023-03-21T13:15:31;99312.50;;;19.63;51.86
29839;BME280;18669;53.356;-1.464;2023-03-21T13:27:25;99325.06;;;17.58;74.25
29839;BME280;18669;53.356;-1.464;2023-03-21T13:30:22;99328.88;;;17.67;75.12
29839;BME280;18669;53.356;-1.464;2023-03-21T13:33:12;99331.63;;;18.64;73.07
29839;BME280;18669;53.356;-1.464;2023-03-21T13:36:04;99316.06;;;19.41;67.59
29839;BME280;18669;53.356;-1.464;2023-03-21T13:38:53;99316.66;;;20.34;62.11
29839;BME280;18669;53.356;-1.464;2023-03-21T13:41:42;99311.44;;;21.08;58.29
29839;BME280;18669;53.356;-1.464;2023-03-21T13:44:54;99306.66;;;21.33;55.58
29839;BME280;18669;53.356;-1.464;2023-03-21T13:50:49;99317.94;;;20.72;56.79
29839;BME280;18669;53.356;-1.464;2023-03-21T13:53:41;99328.78;;;18.55;66.89
29839;BME280;18669;53.356;-1.464;2023-03-21T14:02:21;99317.75;;;17.10;100.00
29839;BME280;18669;53.356;-1.464;2023-03-21T14:05:17;99318.50;;;17.12;100.00
29839;BME280;18669;53.356;-1.464;2023-03-21T14:08:06;99319.22;;;18.52;100.00
29839;BME280;18669;53.356;-1.464;2023-03-21T14:10:54;99321.41;;;19.41;79.77
29839;BME280;18669;53.356;-1.464;2023-03-21T14:13:42;99320.75;;;18.68;86.75
29839;BME280;18669;53.356;-1.464;2023-03-21T14:16:28;99334.50;;;17.75;89.98
29839;BME280;18669;53.356;-1.464;2023-03-21T14:19:13;99321.41;;;16.82;100.00
29839;BME280;18669;53.356;-1.464;2023-03-21T14:21:58;99323.09;;;15.73;100.00
29839;BME280;18669;53.356;-1.464;2023-03-21T14:24:55;99323.69;;;15.20;100.00
29839;BME280;18669;53.356;-1.464;2023-03-21T14:27:47;99325.28;;;14.94;100.00
29839;BME280;18669;53.356;-1.464;2023-03-21T14:30:37;99312.78;;;14.96;100.00
29839;BME280;18669;53.356;-1.464;2023-03-21T14:33:34;99299.13;;;16.31;100.00
29839;BME280;18669;53.356;-1.464;2023-03-21T14:36:26;99288.53;;;18.35;100.00
29839;BME280;18669;53.356;-1.464;2023-03-21T14:39:16;99272.28;;;19.55;98.69
29839;BME280;18669;53.356;-1.464;2023-03-21T14:42:05;99271.59;;;19.86;83.56
29839;BME280;18669;53.356;-1.464;2023-03-21T14:44:50;99260.56;;;20.34;79.50
29839;BME280;18669;53.356;-1.464;2023-03-21T14:47:36;99272.25;;;19.78;74.89
29839;BME280;18669;53.356;-1.464;2023-03-21T14:50:49;99265.25;;;19.31;78.65
29839;BME280;18669;53.356;-1.464;2023-03-21T14:53:38;99284.00;;;18.60;80.41
29839;BME280;18669;53.356;-1.464;2023-03-21T14:56:24;99296.44;;;18.12;83.13
29839;BME280;18669;53.356;-1.464;2023-03-21T14:59:13;99273.97;;;17.66;82.01
29839;BME280;18669;53.356;-1.464;2023-03-21T15:02:03;99268.25;;;17.59;75.33
29839;BME280;18669;53.356;-1.464;2023-03-21T15:04:51;99275.91;;;18.01;74.83
29839;BME280;18669;53.356;-1.464;2023-03-21T15:07:36;99263.75;;;17.73;70.00
29839;BME280;18669;53.356;-1.464;2023-03-21T15:10:23;99257.84;;;17.56;74.76
29839;BME280;18669;53.356;-1.464;2023-03-21T15:13:17;99257.38;;;18.60;69.78
29839;BME280;18669;53.356;-1.464;2023-03-21T15:16:03;99258.09;;;18.98;63.63
29839;BME280;18669;53.356;-1.464;2023-03-21T15:18:48;99252.50;;;19.69;57.53
29839;BME280;18669;53.356;-1.464;2023-03-21T15:21:37;99248.84;;;19.70;55.38
29839;BME280;18669;53.356;-1.464;2023-03-21T15:24:26;99248.28;;;19.55;51.68
29839;BME280;18669;53.356;-1.464;2023-03-21T15:27:15;99252.28;;;19.38;49.92
29839;BME280;18669;53.356;-1.464;2023-03-21T15:30:01;99249.00;;;19.46;50.03
29839;BME280;18669;53.356;-1.464;2023-03-21T15:32:46;99243.63;;;19.80;48.75
29839;BME280;18669;53.356;-1.464;2023-03-21T15:35:43;99246.34;;;19.12;49.94
29839;BME280;18669;53.356;-1.464;2023-03-21T15:38:37;99239.88;;;18.80;51.15
29839;BME280;18669;53.356;-1.464;2023-03-21T15:41:29;99243.31;;;19.28;50.57
29839;BME280;18669;53.356;-1.464;2023-03-21T15:44:14;99248.25;;;18.87;51.84
29839;BME280;18669;53.356;-1.464;2023-03-21T15:47:01;99245.72;;;19.08;50.81
29839;BME280;18669;53.356;-1.464;2023-03-21T15:49:52;99241.00;;;20.34;46.73
29839;BME280;18669;53.356;-1.464;2023-03-21T15:52:38;99237.41;;;20.02;45.61
29839;BME280;18669;53.356;-1.464;2023-03-21T15:55:27;99268.75;;;19.43;47.54
29839;BME280;18669;53.356;-1.464;2023-03-21T15:58:17;99264.94;;;18.42;49.07
29839;BME280;18669;53.356;-1.464;2023-03-21T16:01:13;99266.88;;;18.04;51.05